Time;durP1;ratioP1;P1;durP2;ratioP2;P2;SDS_P1;SDS_P2;PMS_P1;PMS_P2;Temp;Humidity;BMP_temperature;BMP_pressure;BME280_temperature;BME280_humidity;BME280_pressure;Samples;Min_cycle;Max_cycle;Signal;HPM_P1;HPM_P2
2021/04/26 00:00:49;;;;;;;16.80;11.50;;;10.10;66.50;;;;;;5089829;28;20017;-62
2021/04/26 00:03:15;;;;;;;10.48;9.13;;;10.10;66.70;;;;;;5090133;28;20024;-62
2021/04/26 00:05:41;;;;;;;11.93;9.30;;;10.10;66.60;;;;;;5091585;28;20028;-61
2021/04/26 00:08:06;;;;;;;11.82;8.65;;;10.10;66.60;;;;;;5093578;28;20081;-62
2021/04/26 00:10:32;;;;;;;10.43;8.73;;;10.10;66.40;;;;;;5094579;28;20028;-62
2021/04/26 00:12:59;;;;;;;10.77;9.07;;;10.00;66.40;;;;;;5094398;28;20419;-62
2021/04/26 00:15:27;;;;;;;12.00;9.05;;;10.00;66.60;;;;;;5094708;28;20035;-62
2021/04/26 00:17:53;;;;;;;11.25;9.05;;;10.00;66.80;;;;;;5094275;28;20387;-62
2021/04/26 00:20:27;;;;;;;9.32;8.35;;;9.90;67.00;;;;;;5093601;28;20062;-62
2021/04/26 00:22:57;;;;;;;11.50;9.07;;;9.90;67.00;;;;;;5078503;28;20033;-62
2021/04/26 00:25:23;;;;;;;12.50;9.25;;;9.90;67.30;;;;;;5085827;28;20023;-62
2021/04/26 00:27:49;;;;;;;11.45;9.30;;;9.80;67.20;;;;;;5092542;28;20440;-62
2021/04/26 00:30:17;;;;;;;11.63;8.60;;;9.80;67.50;;;;;;5093422;28;20024;-62
2021/04/26 00:32:44;;;;;;;10.77;9.60;;;9.80;67.70;;;;;;5093163;28;20054;-62
2021/04/26 00:35:10;;;;;;;10.15;9.02;;;9.80;68.00;;;;;;5081132;28;20012;-62
2021/04/26 00:37:36;;;;;;;11.23;9.18;;;9.80;68.10;;;;;;5094307;28;20082;-62
2021/04/26 00:40:03;;;;;;;11.90;9.65;;;9.80;68.40;;;;;;5088957;28;20028;-62
2021/04/26 00:42:29;;;;;;;12.18;9.73;;;9.80;68.60;;;;;;5075964;28;20047;-62
2021/04/26 00:44:55;;;;;;;10.65;9.52;;;9.80;68.90;;;;;;5092381;28;20103;-62
2021/04/26 00:47:21;;;;;;;10.77;9.52;;;9.80;68.90;;;;;;5094154;28;20456;-62
2021/04/26 00:49:47;;;;;;;12.05;10.05;;;9.80;69.00;;;;;;5085060;28;20063;-62
2021/04/26 00:52:13;;;;;;;11.38;9.60;;;9.80;69.10;;;;;;5088020;28;20044;-62
2021/04/26 00:54:39;;;;;;;13.30;10.13;;;9.80;69.10;;;;;;5088448;28;20031;-62
2021/04/26 00:57:05;;;;;;;9.63;8.35;;;9.80;69.10;;;;;;5096473;28;20028;-62
2021/04/26 00:59:33;;;;;;;12.25;9.68;;;9.70;69.10;;;;;;5093913;28;20476;-62
2021/04/26 01:01:59;;;;;;;12.23;9.68;;;9.70;69.50;;;;;;5092657;28;20568;-62
2021/04/26 01:04:25;;;;;;;11.27;9.52;;;9.70;69.90;;;;;;5094285;28;20016;-62
2021/04/26 01:06:50;;;;;;;12.77;10.52;;;9.70;70.10;;;;;;5094148;28;20020;-62
2021/04/26 01:09:16;;;;;;;13.57;10.30;;;9.70;70.40;;;;;;5093869;28;20048;-62
2021/04/26 01:11:52;;;;;;;13.02;10.20;;;9.70;70.40;;;;;;5088736;28;20037;-62
2021/04/26 01:14:43;;;;;;;12.98;10.68;;;9.70;70.40;;;;;;5089311;28;20095;-62
2021/04/26 01:17:17;;;;;;;14.95;11.02;;;9.70;70.20;;;;;;5084761;28;20024;-62
2021/04/26 01:20:03;;;;;;;13.18;11.57;;;9.70;70.30;;;;;;5094673;28;20488;-62
2021/04/26 01:22:49;;;;;;;14.02;10.88;;;9.80;70.30;;;;;;5092602;28;20096;-62
2021/04/26 01:25:18;;;;;;;15.75;11.38;;;9.80;70.30;;;;;;5097929;28;20024;-62
2021/04/26 01:27:46;;;;;;;12.93;10.63;;;9.80;70.10;;;;;;5097568;28;20023;-62
2021/04/26 01:30:23;;;;;;;12.55;10.68;;;9.70;70.00;;;;;;5097180;28;20030;-62
2021/04/26 01:33:06;;;;;;;12.77;10.93;;;9.70;70.00;;;;;;5097495;28;20024;-62
2021/04/26 01:35:32;;;;;;;13.32;11.32;;;9.70;70.00;;;;;;5097178;28;20044;-62
2021/04/26 01:38:04;;;;;;;13.02;11.45;;;9.60;70.00;;;;;;5097292;28;20451;-62
2021/04/26 01:40:31;;;;;;;14.77;11.73;;;9.60;70.00;;;;;;5096224;28;20027;-62
2021/04/26 01:42:59;;;;;;;18.88;14.10;;;9.60;70.00;;;;;;5089095;28;20032;-62
2021/04/26 01:45:26;;;;;;;18.38;15.20;;;9.60;70.70;;;;;;5090707;28;20459;-62
2021/04/26 01:47:56;;;;;;;20.25;16.83;;;9.60;70.30;;;;;;5097385;28;20024;-62
2021/04/26 01:50:24;;;;;;;18.90;16.17;;;9.60;70.20;;;;;;5096858;28;20090;-62
2021/04/26 01:52:51;;;;;;;17.38;15.48;;;9.60;70.40;;;;;;5097212;28;20032;-62
2021/04/26 01:55:19;;;;;;;19.30;16.17;;;9.60;70.00;;;;;;5085293;28;20021;-62
2021/04/26 01:57:45;;;;;;;17.85;15.80;;;9.70;70.00;;;;;;5083558;28;20028;-62
2021/04/26 02:00:24;;;;;;;19.13;16.40;;;9.60;69.90;;;;;;5082077;28;20012;-62
2021/04/26 02:02:50;;;;;;;19.33;16.85;;;9.60;69.90;;;;;;5096041;28;20035;-62
2021/04/26 02:05:16;;;;;;;17.85;15.98;;;9.60;69.90;;;;;;5096644;28;20059;-62
2021/04/26 02:07:45;;;;;;;18.73;16.38;;;9.60;70.10;;;;;;5096567;28;20094;-62
2021/04/26 02:10:12;;;;;;;17.50;15.48;;;9.50;70.10;;;;;;5096513;28;20103;-62
2021/04/26 02:12:38;;;;;;;18.83;16.38;;;9.60;70.10;;;;;;5096881;28;20471;-62
2021/04/26 02:15:10;;;;;;;19.33;15.88;;;9.50;69.90;;;;;;5096807;28;20103;-62
2021/04/26 02:17:36;;;;;;;18.70;16.13;;;9.50;70.00;;;;;;5096710;28;20043;-62
2021/04/26 02:20:05;;;;;;;24.25;17.73;;;9.50;70.00;;;;;;5094496;28;20082;-62
2021/04/26 02:22:31;;;;;;;23.23;18.25;;;9.50;70.00;;;;;;5088039;28;20090;-62
2021/04/26 02:24:57;;;;;;;22.70;18.27;;;9.50;70.10;;;;;;5090997;28;20040;-62
2021/04/26 02:27:22;;;;;;;22.20;18.35;;;9.50;70.10;;;;;;5096334;28;20464;-62
2021/04/26 02:29:49;;;;;;;23.45;18.55;;;9.50;70.30;;;;;;5095281;28;20356;-62
2021/04/26 02:32:27;;;;;;;25.65;20.55;;;9.40;70.00;;;;;;5096511;28;20099;-62
2021/04/26 02:34:56;;;;;;;28.17;20.83;;;9.40;69.90;;;;;;5096530;28;20028;-62
2021/04/26 02:37:44;;;;;;;24.98;20.60;;;9.40;70.00;;;;;;5096184;28;20024;-62
2021/04/26 02:40:13;;;;;;;26.52;21.05;;;9.40;69.70;;;;;;5095161;28;20043;-62
2021/04/26 02:42:43;;;;;;;32.47;23.60;;;9.30;69.90;;;;;;5088682;28;20031;-62
2021/04/26 02:45:14;;;;;;;30.85;22.90;;;9.30;70.00;;;;;;5096334;28;20111;-62
2021/04/26 02:47:41;;;;;;;31.52;23.33;;;9.30;70.00;;;;;;5095979;28;20448;-62
2021/04/26 02:50:09;;;;;;;29.90;23.40;;;9.30;70.10;;;;;;5092745;28;20414;-62
2021/04/26 02:52:36;;;;;;;34.17;23.70;;;9.30;70.00;;;;;;5096264;28;20472;-62
2021/04/26 02:55:03;;;;;;;31.13;22.98;;;9.30;70.00;;;;;;5095735;28;20069;-62
2021/04/26 02:57:33;;;;;;;29.85;23.48;;;9.30;70.20;;;;;;5095873;28;20086;-62
2021/04/26 03:00:00;;;;;;;32.20;23.52;;;9.30;69.90;;;;;;5095573;28;20023;-62
2021/04/26 03:02:26;;;;;;;31.38;23.75;;;9.30;69.80;;;;;;5094322;28;20028;-62
2021/04/26 03:04:53;;;;;;;29.20;23.40;;;9.30;69.90;;;;;;5090334;28;20375;-62
2021/04/26 03:07:20;;;;;;;28.35;22.23;;;9.40;70.60;;;;;;5095668;28;20052;-62
2021/04/26 03:09:47;;;;;;;34.95;22.13;;;9.40;70.00;;;;;;5095802;28;20020;-62
2021/04/26 03:12:12;;;;;;;23.90;18.92;;;9.50;70.20;;;;;;5095579;28;20034;-62
2021/04/26 03:14:40;;;;;;;24.45;19.55;;;9.50;70.30;;;;;;5095662;28;20020;-62
2021/04/26 03:17:07;;;;;;;23.40;18.20;;;9.60;70.30;;;;;;5095549;28;20083;-62
2021/04/26 03:19:34;;;;;;;20.15;15.90;;;9.60;70.20;;;;;;5095283;28;20351;-62
2021/04/26 03:22:02;;;;;;;16.42;14.60;;;9.70;70.10;;;;;;5074289;28;20464;-62
2021/04/26 03:24:28;;;;;;;15.73;13.65;;;9.80;70.10;;;;;;5095089;28;20024;-62
2021/04/26 03:26:56;;;;;;;14.57;12.57;;;9.80;69.80;;;;;;5095639;28;20020;-62
2021/04/26 03:29:22;;;;;;;15.68;13.65;;;9.80;69.70;;;;;;5094716;28;20035;-62
2021/04/26 03:31:49;;;;;;;16.45;12.85;;;9.80;69.80;;;;;;5095007;28;20031;-62
2021/04/26 03:34:16;;;;;;;16.05;12.50;;;9.80;69.70;;;;;;5095094;28;20016;-62
2021/04/26 03:36:43;;;;;;;16.58;13.15;;;9.80;69.70;;;;;;5094786;28;20024;-62
2021/04/26 03:39:12;;;;;;;18.50;13.00;;;9.80;69.70;;;;;;5094926;28;20422;-62
2021/04/26 03:41:38;;;;;;;17.63;13.10;;;9.80;69.60;;;;;;5093597;28;20032;-62
2021/04/26 03:44:05;;;;;;;17.70;13.90;;;9.80;69.60;;;;;;5091249;28;20529;-62
2021/04/26 03:46:31;;;;;;;17.77;13.40;;;9.70;69.50;;;;;;5095201;28;20024;-62
2021/04/26 03:48:58;;;;;;;16.33;13.77;;;9.70;69.70;;;;;;5092877;28;20112;-62
2021/04/26 03:51:24;;;;;;;15.65;13.05;;;9.70;69.90;;;;;;5091536;28;20043;-62
2021/04/26 03:53:49;;;;;;;16.42;13.55;;;9.70;69.80;;;;;;5094655;28;20032;-62
2021/04/26 03:56:15;;;;;;;18.20;12.82;;;9.70;69.90;;;;;;5082874;28;20099;-62
2021/04/26 03:58:40;;;;;;;14.93;12.55;;;9.70;69.90;;;;;;5094415;28;20106;-62
2021/04/26 04:01:06;;;;;;;15.10;12.65;;;9.70;69.90;;;;;;5092875;28;20039;-62
2021/04/26 04:03:32;;;;;;;17.45;13.18;;;9.70;70.00;;;;;;5093966;28;20679;-62
2021/04/26 04:05:57;;;;;;;14.75;12.80;;;9.80;70.30;;;;;;5085680;28;20028;-62
2021/04/26 04:08:23;;;;;;;15.20;12.45;;;9.80;70.20;;;;;;5094095;28;20078;-62
2021/04/26 04:10:49;;;;;;;14.65;12.35;;;9.80;70.30;;;;;;5094094;28;20438;-62
2021/04/26 04:13:14;;;;;;;15.80;12.57;;;9.70;70.10;;;;;;5094535;28;20070;-62
2021/04/26 04:15:40;;;;;;;16.13;13.65;;;9.80;70.50;;;;;;5094467;28;20456;-62
2021/04/26 04:18:06;;;;;;;14.75;13.05;;;9.70;70.40;;;;;;5093823;28;20024;-62
2021/04/26 04:20:31;;;;;;;16.55;13.13;;;9.70;70.60;;;;;;5094268;28;20089;-62
2021/04/26 04:22:57;;;;;;;16.25;11.88;;;9.80;70.70;;;;;;5091980;28;20055;-62
2021/04/26 04:25:23;;;;;;;15.13;12.95;;;9.70;70.60;;;;;;5093649;28;20082;-62
2021/04/26 04:27:48;;;;;;;16.00;11.63;;;9.70;70.30;;;;;;5093729;28;20028;-62
2021/04/26 04:30:15;;;;;;;13.68;11.32;;;9.60;70.30;;;;;;5087300;28;20031;-62
2021/04/26 04:32:41;;;;;;;13.85;11.57;;;9.50;70.40;;;;;;5093924;28;20132;-62
2021/04/26 04:35:08;;;;;;;15.95;12.77;;;9.40;70.70;;;;;;5093860;28;20349;-62
2021/04/26 04:37:34;;;;;;;19.05;14.25;;;9.30;71.10;;;;;;5093873;28;20054;-62
2021/04/26 04:39:59;;;;;;;17.23;12.15;;;9.20;71.90;;;;;;5093773;28;20028;-62
2021/04/26 04:42:25;;;;;;;15.88;12.77;;;9.20;72.10;;;;;;5092908;28;20020;-61
2021/04/26 04:44:51;;;;;;;14.50;12.23;;;9.10;72.30;;;;;;5094250;28;20028;-62
2021/04/26 04:47:16;;;;;;;15.63;11.50;;;9.20;72.40;;;;;;5093981;28;20024;-62
2021/04/26 04:49:42;;;;;;;16.70;11.88;;;9.20;72.20;;;;;;5083427;28;20045;-62
2021/04/26 04:52:08;;;;;;;14.70;11.35;;;9.20;72.10;;;;;;5093970;28;20028;-62
2021/04/26 04:54:33;;;;;;;13.98;10.20;;;9.30;72.10;;;;;;5091717;28;20333;-62
2021/04/26 04:56:59;;;;;;;10.98;9.18;;;9.30;71.90;;;;;;5098019;28;20052;-62
2021/04/26 04:59:25;;;;;;;9.18;7.78;;;9.30;71.60;;;;;;5097695;28;20028;-62
2021/04/26 05:01:50;;;;;;;10.70;7.75;;;9.20;71.10;;;;;;5096586;28;20039;-61
2021/04/26 05:04:16;;;;;;;10.13;6.80;;;9.20;70.70;;;;;;5091660;28;20052;-62
2021/04/26 05:06:42;;;;;;;9.18;6.95;;;9.10;70.50;;;;;;5088397;28;20031;-62
2021/04/26 05:09:08;;;;;;;8.73;6.32;;;9.00;70.20;;;;;;5097990;28;20073;-62
2021/04/26 05:11:34;;;;;;;8.25;6.10;;;8.90;70.20;;;;;;5097781;28;20035;-61
2021/04/26 05:14:00;;;;;;;8.18;6.35;;;8.90;70.20;;;;;;5097507;28;20020;-62
2021/04/26 05:16:27;;;;;;;8.15;5.47;;;8.80;70.20;;;;;;5097501;28;20070;-62
2021/04/26 05:18:53;;;;;;;7.10;5.55;;;8.70;70.20;;;;;;5096467;28;20035;-62
2021/04/26 05:21:19;;;;;;;9.60;6.63;;;8.60;70.30;;;;;;5097526;28;20444;-62
2021/04/26 05:23:45;;;;;;;8.88;6.40;;;8.50;70.50;;;;;;5097206;28;20024;-62
2021/04/26 05:26:10;;;;;;;7.97;6.13;;;8.40;70.50;;;;;;5097438;28;20049;-62
2021/04/26 05:28:36;;;;;;;7.28;5.93;;;8.40;70.80;;;;;;5097315;28;20085;-62
2021/04/26 05:31:02;;;;;;;7.95;6.10;;;8.40;71.00;;;;;;5093889;28;20047;-62
2021/04/26 05:33:27;;;;;;;8.15;6.65;;;8.40;71.20;;;;;;5096406;28;20090;-62
2021/04/26 05:35:53;;;;;;;7.32;6.30;;;8.40;71.40;;;;;;5095681;28;20117;-62
2021/04/26 05:38:19;;;;;;;9.27;7.78;;;8.30;71.10;;;;;;5093491;28;20021;-62
2021/04/26 05:40:47;;;;;;;8.52;7.38;;;8.30;71.20;;;;;;5091089;28;20647;-62
2021/04/26 05:43:14;;;;;;;10.20;7.63;;;8.20;71.50;;;;;;5089794;28;20036;-62
2021/04/26 05:45:40;;;;;;;10.38;7.85;;;8.20;71.70;;;;;;5087545;28;20028;-62
2021/04/26 05:48:06;;;;;;;11.20;8.68;;;8.20;72.00;;;;;;5088397;28;20024;-62
2021/04/26 05:50:33;;;;;;;11.50;8.60;;;8.20;72.10;;;;;;5087453;28;20097;-62
2021/04/26 05:52:59;;;;;;;9.75;8.27;;;8.20;71.90;;;;;;5085411;28;20095;-62
2021/04/26 05:55:25;;;;;;;12.52;9.02;;;8.20;71.90;;;;;;5086987;28;20052;-62
2021/04/26 05:57:51;;;;;;;10.45;8.73;;;8.20;72.10;;;;;;5084184;28;20047;-62
2021/04/26 06:00:17;;;;;;;10.20;9.05;;;8.20;72.20;;;;;;5081825;28;20103;-62
2021/04/26 06:02:42;;;;;;;9.93;8.90;;;8.30;72.20;;;;;;5081236;28;20051;-62
2021/04/26 06:05:09;;;;;;;6.05;5.00;;;8.30;71.70;;;;;;5086685;28;20028;-56
2021/04/26 06:07:35;;;;;;;4.70;3.65;;;8.20;71.00;;;;;;5082841;28;20081;-59
2021/04/26 06:10:01;;;;;;;4.03;3.20;;;8.00;70.70;;;;;;5091211;28;20032;-58
2021/04/26 06:12:26;;;;;;;2.63;2.35;;;7.70;70.60;;;;;;5088132;28;20421;-59
2021/04/26 06:14:52;;;;;;;2.88;2.67;;;7.40;71.40;;;;;;5083262;28;20029;-56
2021/04/26 06:17:18;;;;;;;2.42;2.30;;;7.10;72.20;;;;;;5084640;28;20039;-57
2021/04/26 06:19:43;;;;;;;2.30;2.20;;;6.80;73.10;;;;;;5087572;28;20067;-58
2021/04/26 06:22:09;;;;;;;2.20;2.10;;;6.60;73.80;;;;;;5085174;28;20106;-57
2021/04/26 06:24:34;;;;;;;2.30;2.20;;;6.50;74.30;;;;;;5082256;28;20020;-56
2021/04/26 06:27:00;;;;;;;2.05;1.95;;;6.40;74.80;;;;;;5079817;28;20024;-58
2021/04/26 06:29:26;;;;;;;2.17;2.08;;;6.30;75.30;;;;;;5082768;28;20020;-57
2021/04/26 06:31:51;;;;;;;2.38;2.17;;;6.30;76.00;;;;;;5082968;28;20036;-58
2021/04/26 06:34:17;;;;;;;2.70;2.50;;;6.20;76.30;;;;;;5093814;28;20024;-56
2021/04/26 06:36:43;;;;;;;2.60;2.20;;;6.20;76.50;;;;;;5084018;28;20055;-58
2021/04/26 06:39:10;;;;;;;2.40;2.20;;;6.10;76.60;;;;;;5080568;28;20051;-56
2021/04/26 06:41:36;;;;;;;3.17;2.38;;;6.00;76.70;;;;;;5080398;28;20020;-59
2021/04/26 06:44:02;;;;;;;2.60;2.40;;;5.90;76.90;;;;;;5082662;28;20081;-57
2021/04/26 06:46:28;;;;;;;2.50;2.30;;;5.90;77.10;;;;;;5083452;28;20032;-58
2021/04/26 06:48:53;;;;;;;2.30;2.13;;;5.90;77.40;;;;;;5083312;28;20044;-57
2021/04/26 06:51:19;;;;;;;2.25;2.10;;;5.80;77.30;;;;;;5078544;28;20044;-57
2021/04/26 06:53:45;;;;;;;1.73;1.63;;;5.80;77.40;;;;;;5082290;28;20452;-56
2021/04/26 06:56:10;;;;;;;2.08;1.98;;;5.70;77.50;;;;;;5081617;28;20055;-57
2021/04/26 06:58:36;;;;;;;1.90;1.80;;;5.70;77.40;;;;;;5084753;28;20032;-57
2021/04/26 07:01:02;;;;;;;2.08;1.98;;;5.70;77.50;;;;;;5083938;28;20082;-58
2021/04/26 07:03:28;;;;;;;1.90;1.80;;;5.60;77.50;;;;;;5078589;28;20019;-55
2021/04/26 07:05:53;;;;;;;2.40;2.20;;;5.60;77.70;;;;;;5086207;28;20043;-57
2021/04/26 07:08:19;;;;;;;1.83;1.73;;;5.60;77.90;;;;;;5087213;28;20099;-59
2021/04/26 07:10:44;;;;;;;1.98;1.85;;;5.60;78.10;;;;;;5080407;28;20034;-57
2021/04/26 07:13:10;;;;;;;1.90;1.80;;;5.60;78.10;;;;;;5082609;28;20028;-58
2021/04/26 07:15:36;;;;;;;1.80;1.70;;;5.60;78.00;;;;;;5080639;28;20031;-55
2021/04/26 07:18:02;;;;;;;1.58;1.50;;;5.50;78.20;;;;;;5082214;28;20508;-57
2021/04/26 07:20:27;;;;;;;1.70;1.60;;;5.60;78.40;;;;;;5077252;28;20075;-56
2021/04/26 07:22:53;;;;;;;1.70;1.60;;;5.60;78.50;;;;;;5080790;28;20075;-56
2021/04/26 07:25:19;;;;;;;1.73;1.63;;;5.60;78.70;;;;;;5077659;28;20027;-58
2021/04/26 07:27:44;;;;;;;1.80;1.70;;;5.60;78.60;;;;;;5080852;28;20032;-57
2021/04/26 07:30:11;;;;;;;1.42;1.40;;;5.60;78.50;;;;;;5081365;28;20617;-58
2021/04/26 07:32:37;;;;;;;1.45;1.45;;;5.70;78.80;;;;;;5080494;28;20027;-58
2021/04/26 07:35:05;;;;;;;1.30;1.30;;;5.70;79.00;;;;;;5081159;28;20043;-58
2021/04/26 07:37:31;;;;;;;1.70;1.60;;;5.80;78.80;;;;;;5081399;28;20032;-58
2021/04/26 07:39:56;;;;;;;1.80;1.70;;;5.80;78.70;;;;;;5081773;28;20066;-59
2021/04/26 07:42:22;;;;;;;1.90;1.80;;;5.80;78.40;;;;;;5075689;28;20030;-57
2021/04/26 07:44:48;;;;;;;1.80;1.70;;;5.70;78.30;;;;;;5073402;28;20035;-58
2021/04/26 07:47:14;;;;;;;1.70;1.60;;;5.70;78.80;;;;;;5079474;28;20028;-56
2021/04/26 07:49:40;;;;;;;1.60;1.55;;;5.80;78.90;;;;;;5074030;28;20365;-57
2021/04/26 07:52:05;;;;;;;1.77;1.67;;;5.70;79.00;;;;;;5075550;28;20139;-58
2021/04/26 07:54:32;;;;;;;1.45;1.45;;;5.70;79.20;;;;;;5080942;28;20491;-58
2021/04/26 07:56:58;;;;;;;2.00;1.90;;;5.70;78.90;;;;;;5085409;28;20089;-57
2021/04/26 07:59:23;;;;;;;2.20;2.00;;;5.70;79.10;;;;;;5075251;28;20035;-58
2021/04/26 08:01:49;;;;;;;2.00;1.90;;;5.70;79.20;;;;;;5080327;28;20058;-57
2021/04/26 08:04:15;;;;;;;1.75;1.73;;;5.70;79.60;;;;;;5082438;28;20032;-57
2021/04/26 08:06:40;;;;;;;2.25;2.00;;;5.70;79.80;;;;;;5084146;28;20769;-58
2021/04/26 08:09:08;;;;;;;2.33;2.13;;;5.70;79.80;;;;;;5069740;28;20055;-58
2021/04/26 08:11:34;;;;;;;2.08;1.98;;;5.80;79.70;;;;;;5076649;28;20032;-58
2021/04/26 08:14:00;;;;;;;2.10;2.00;;;5.80;79.50;;;;;;5073579;28;20042;-56
2021/04/26 08:16:25;;;;;;;2.97;2.00;;;5.80;79.80;;;;;;5076880;28;20020;-55
2021/04/26 08:18:51;;;;;;;2.10;2.00;;;5.80;79.70;;;;;;5083201;28;20568;-57
2021/04/26 08:21:17;;;;;;;2.30;2.10;;;5.80;79.80;;;;;;5080856;28;20039;-56
2021/04/26 08:23:43;;;;;;;1.92;1.83;;;5.80;79.80;;;;;;5078205;28;20028;-57
2021/04/26 08:26:10;;;;;;;2.50;2.30;;;5.80;79.60;;;;;;5077808;28;20047;-56
2021/04/26 08:28:38;;;;;;;2.00;1.90;;;5.80;79.60;;;;;;5079810;28;20112;-58
2021/04/26 08:31:07;;;;;;;2.63;2.38;;;5.80;80.00;;;;;;5081357;28;20028;-59
2021/04/26 08:33:39;;;;;;;2.20;2.10;;;5.80;80.00;;;;;;5082590;28;20169;-58
2021/04/26 08:36:05;;;;;;;1.98;1.88;;;5.80;79.90;;;;;;5079949;28;20058;-57
2021/04/26 08:38:31;;;;;;;1.90;1.80;;;5.80;79.80;;;;;;5082754;28;20032;-57
2021/04/26 08:40:57;;;;;;;1.80;1.70;;;5.80;79.70;;;;;;5080718;28;20039;-58
2021/04/26 08:43:24;;;;;;;2.03;1.92;;;5.80;80.00;;;;;;5088238;28;20059;-57
2021/04/26 08:45:50;;;;;;;2.47;2.30;;;5.80;80.20;;;;;;5090837;28;20123;-58
2021/04/26 08:48:18;;;;;;;2.53;2.30;;;5.90;80.10;;;;;;5087499;28;20125;-57
2021/04/26 08:50:44;;;;;;;2.30;2.20;;;5.80;80.10;;;;;;5087800;28;20090;-58
2021/04/26 08:53:10;;;;;;;2.45;2.25;;;5.80;80.00;;;;;;5083357;28;20032;-58
2021/04/26 08:55:36;;;;;;;2.40;2.20;;;5.80;79.90;;;;;;5084317;28;20028;-58
2021/04/26 08:58:02;;;;;;;2.60;2.40;;;5.90;79.70;;;;;;5079663;28;20056;-57
2021/04/26 09:00:28;;;;;;;2.75;2.17;;;5.90;80.00;;;;;;5084895;28;20070;-58
2021/04/26 09:02:55;;;;;;;2.88;2.30;;;5.80;80.00;;;;;;5084239;28;20031;-55
2021/04/26 09:05:22;;;;;;;2.50;2.30;;;5.90;80.40;;;;;;5080482;28;20044;-58
2021/04/26 09:07:53;;;;;;;2.40;2.20;;;5.90;80.60;;;;;;5080201;28;20027;-57
2021/04/26 09:10:40;;;;;;;2.63;2.40;;;5.90;80.30;;;;;;5082213;28;20037;-57
2021/04/26 09:13:31;;;;;;;2.72;2.50;;;6.00;80.00;;;;;;5085738;28;20043;-58
2021/04/26 09:16:22;;;;;;;2.65;2.45;;;6.00;79.60;;;;;;5050902;28;20040;-58
2021/04/26 09:18:50;;;;;;;3.20;2.88;;;5.90;79.60;;;;;;5076925;28;20066;-57
2021/04/26 09:21:17;;;;;;;2.58;2.38;;;5.90;79.70;;;;;;5079191;28;20107;-55
2021/04/26 09:23:44;;;;;;;3.10;2.80;;;6.00;79.80;;;;;;5087199;28;20047;-57
2021/04/26 09:26:27;;;;;;;2.97;2.55;;;6.00;80.00;;;;;;5064344;28;20036;-56
2021/04/26 09:29:13;;;;;;;3.13;2.83;;;6.00;79.90;;;;;;5077929;28;20047;-56
2021/04/26 09:31:39;;;;;;;2.60;2.40;;;6.10;80.00;;;;;;5078346;28;20016;-57
2021/04/26 09:34:05;;;;;;;2.60;2.40;;;6.10;79.50;;;;;;5074963;28;20032;-59
2021/04/26 09:36:32;;;;;;;2.63;2.42;;;6.10;79.40;;;;;;5080600;28;20187;-58
2021/04/26 09:39:02;;;;;;;2.90;2.67;;;6.10;79.40;;;;;;5076714;28;21084;-58
2021/04/26 09:41:33;;;;;;;2.50;2.30;;;6.20;79.30;;;;;;5079225;28;20597;-57
2021/04/26 09:44:02;;;;;;;2.65;2.45;;;6.20;79.20;;;;;;5078544;28;20028;-58
2021/04/26 09:46:50;;;;;;;3.03;2.63;;;6.30;79.00;;;;;;5077456;28;20119;-57
2021/04/26 09:49:27;;;;;;;2.60;2.40;;;6.30;79.10;;;;;;5078958;28;20032;-58
2021/04/26 09:51:59;;;;;;;2.55;2.35;;;6.40;79.00;;;;;;5085195;28;20063;-58
2021/04/26 09:54:39;;;;;;;2.42;2.30;;;6.40;78.70;;;;;;5083025;28;20044;-58
2021/04/26 09:57:05;;;;;;;2.60;2.30;;;6.50;78.20;;;;;;5080271;28;21868;-59
2021/04/26 09:59:30;;;;;;;3.08;2.78;;;6.50;78.10;;;;;;5080208;28;20020;-59
2021/04/26 10:01:56;;;;;;;3.35;2.83;;;6.50;77.90;;;;;;5083421;28;20028;-58
2021/04/26 10:04:22;;;;;;;4.13;2.22;;;6.60;78.00;;;;;;5081023;28;20053;-59
2021/04/26 10:06:48;;;;;;;2.50;2.30;;;6.60;77.60;;;;;;5084188;28;20131;-58
2021/04/26 10:09:14;;;;;;;2.65;2.45;;;6.60;77.70;;;;;;5077719;28;20056;-58
2021/04/26 10:11:40;;;;;;;2.92;2.60;;;6.70;77.80;;;;;;5079123;28;20036;-58
2021/04/26 10:14:08;;;;;;;2.47;2.28;;;6.80;77.60;;;;;;5077713;28;20032;-59
2021/04/26 10:16:43;;;;;;;2.58;2.38;;;6.90;77.30;;;;;;5080407;28;20040;-59
2021/04/26 10:19:09;;;;;;;2.70;2.50;;;7.00;77.50;;;;;;5082686;28;21302;-59
2021/04/26 10:21:35;;;;;;;3.00;2.40;;;7.10;76.60;;;;;;5085831;28;20085;-59
2021/04/26 10:24:19;;;;;;;2.55;2.20;;;7.20;76.10;;;;;;5069599;28;20154;-58
2021/04/26 10:26:49;;;;;;;3.00;2.20;;;7.30;75.40;;;;;;5081270;28;20028;-59
2021/04/26 10:29:32;;;;;;;2.30;2.10;;;7.40;75.10;;;;;;5079841;28;20040;-59
2021/04/26 10:32:01;;;;;;;2.60;2.40;;;7.50;74.90;;;;;;5080880;28;20024;-57
2021/04/26 10:34:36;;;;;;;2.53;2.33;;;7.50;74.60;;;;;;5078292;28;20115;-59
2021/04/26 10:37:18;;;;;;;2.85;2.40;;;7.60;74.40;;;;;;5086848;28;20028;-59
2021/04/26 10:39:59;;;;;;;3.13;2.30;;;7.60;74.50;;;;;;5078703;28;20483;-59
2021/04/26 10:42:51;;;;;;;3.65;2.17;;;7.70;73.90;;;;;;5085002;28;20040;-59
2021/04/26 10:45:20;;;;;;;2.10;2.00;;;7.70;73.20;;;;;;5084642;28;20043;-57
2021/04/26 10:47:54;;;;;;;2.10;2.00;;;7.80;73.20;;;;;;5079235;28;20024;-58
2021/04/26 10:50:20;;;;;;;2.30;2.10;;;7.80;72.70;;;;;;5084064;28;20044;-60
2021/04/26 10:52:50;;;;;;;2.80;2.20;;;7.90;72.60;;;;;;5088800;28;20043;-59
2021/04/26 10:55:19;;;;;;;2.42;2.22;;;7.90;72.50;;;;;;5080859;28;20098;-59
2021/04/26 10:58:21;;;;;;;2.40;2.20;;;8.00;72.40;;;;;;5065147;28;20111;-59
2021/04/26 11:00:48;;;;;;;2.50;2.30;;;8.00;72.20;;;;;;5069259;28;20043;-59
2021/04/26 11:03:17;;;;;;;2.28;2.08;;;8.10;72.50;;;;;;5083111;28;20036;-59
2021/04/26 11:05:44;;;;;;;2.40;2.20;;;8.20;72.20;;;;;;5080868;28;20634;-59
2021/04/26 11:11:04;;;;;;;2.25;2.05;;;8.30;71.20;;;;;;5078404;28;20119;-57
2021/04/26 11:13:30;;;;;;;2.35;2.10;;;8.30;71.50;;;;;;5080667;28;20032;-57
2021/04/26 11:16:06;;;;;;;2.22;2.10;;;8.30;70.90;;;;;;5086038;28;20377;-59
2021/04/26 11:18:37;;;;;;;2.45;2.25;;;8.30;70.70;;;;;;5081507;28;20048;-58
2021/04/26 11:21:04;;;;;;;2.47;2.20;;;8.40;70.80;;;;;;5085800;28;20119;-58
2021/04/26 11:23:52;;;;;;;2.50;2.30;;;8.40;70.20;;;;;;5084952;28;20032;-58
2021/04/26 11:26:22;;;;;;;2.63;2.08;;;8.40;69.30;;;;;;5083101;28;20074;-58
2021/04/26 11:29:08;;;;;;;2.70;2.30;;;8.40;69.60;;;;;;5080727;28;20053;-56
2021/04/26 11:31:43;;;;;;;3.35;2.20;;;8.40;69.60;;;;;;5073954;28;20480;-56
2021/04/26 11:34:17;;;;;;;2.40;2.20;;;8.40;70.20;;;;;;5078099;28;20159;-59
2021/04/26 11:37:02;;;;;;;2.00;1.90;;;8.50;69.90;;;;;;5079426;28;20032;-58
2021/04/26 11:39:31;;;;;;;2.33;2.13;;;8.60;70.10;;;;;;5072646;28;20035;-58
2021/04/26 11:41:58;;;;;;;2.42;2.20;;;8.60;70.00;;;;;;5077569;28;20028;-58
2021/04/26 11:44:36;;;;;;;2.35;2.15;;;8.70;69.40;;;;;;5079345;28;20030;-58
2021/04/26 11:47:08;;;;;;;3.08;2.20;;;8.70;69.60;;;;;;5080314;28;20058;-57
2021/04/26 11:49:38;;;;;;;2.33;2.13;;;8.70;69.50;;;;;;5083434;28;20059;-57
2021/04/26 11:52:35;;;;;;;2.00;1.90;;;8.70;69.00;;;;;;5081586;28;20036;-59
2021/04/26 11:55:04;;;;;;;2.55;2.25;;;8.80;68.70;;;;;;5065420;28;20044;-57
2021/04/26 11:57:41;;;;;;;2.42;2.10;;;8.70;68.70;;;;;;5081254;28;20483;-57
2021/04/26 12:00:09;;;;;;;2.28;2.05;;;8.70;69.20;;;;;;5080965;28;20028;-57
2021/04/26 12:02:43;;;;;;;2.28;2.08;;;8.80;68.60;;;;;;5081589;28;20029;-55
2021/04/26 12:05:15;;;;;;;2.22;2.03;;;8.80;68.50;;;;;;5084351;28;20086;-58
2021/04/26 12:07:42;;;;;;;1.92;1.83;;;8.90;68.20;;;;;;5079974;28;20483;-58
2021/04/26 12:10:16;;;;;;;2.45;2.25;;;8.90;67.90;;;;;;5084136;28;20029;-57
2021/04/26 12:12:43;;;;;;;2.10;1.90;;;8.80;67.80;;;;;;5074138;28;20055;-58
2021/04/26 12:15:13;;;;;;;2.20;2.00;;;8.80;67.80;;;;;;5071296;28;20038;-56
2021/04/26 12:17:44;;;;;;;1.95;1.85;;;8.80;67.60;;;;;;5079294;28;20111;-60
2021/04/26 12:20:13;;;;;;;2.28;2.08;;;8.80;67.70;;;;;;5079132;28;20075;-55
2021/04/26 12:22:39;;;;;;;2.30;2.10;;;8.90;67.40;;;;;;5077777;28;20028;-56
2021/04/26 12:25:07;;;;;;;2.95;2.30;;;8.90;66.90;;;;;;5076419;28;20032;-57
2021/04/26 12:27:33;;;;;;;2.60;2.28;;;8.80;66.90;;;;;;5078900;28;20028;-57
2021/04/26 12:30:35;;;;;;;2.28;2.00;;;8.80;66.90;;;;;;5078024;28;20043;-57
2021/04/26 12:33:01;;;;;;;3.53;1.92;;;8.70;66.60;;;;;;5032396;28;20040;-61
2021/04/26 12:35:28;;;;;;;2.40;2.17;;;8.70;66.80;;;;;;5078984;28;20521;-58
2021/04/26 12:37:56;;;;;;;2.30;2.10;;;8.60;67.00;;;;;;5080384;28;20040;-57
2021/04/26 12:40:27;;;;;;;2.10;2.00;;;8.70;67.10;;;;;;5084358;28;20047;-58
2021/04/26 12:42:58;;;;;;;2.63;2.15;;;8.70;67.20;;;;;;5082475;28;20036;-59
2021/04/26 12:45:39;;;;;;;3.45;2.55;;;8.70;67.20;;;;;;5079310;28;20058;-58
2021/04/26 12:48:17;;;;;;;2.57;2.37;;;8.70;67.00;;;;;;5071838;28;20036;-58
2021/04/26 12:50:47;;;;;;;2.67;2.17;;;8.70;67.00;;;;;;5075024;28;20055;-57
2021/04/26 12:53:27;;;;;;;2.63;2.43;;;8.70;67.00;;;;;;5074302;28;20029;-58
2021/04/26 12:56:11;;;;;;;2.42;2.20;;;8.70;67.10;;;;;;5060204;28;20024;-58
2021/04/26 12:58:38;;;;;;;2.47;2.28;;;8.80;67.10;;;;;;5080090;28;20024;-58
2021/04/26 13:01:28;;;;;;;2.28;2.05;;;8.80;66.90;;;;;;5077627;28;20088;-58